Time;durP1;ratioP1;P1;durP2;ratioP2;P2;SDS_P1;SDS_P2;PMS_P1;PMS_P2;Temp;Humidity;BMP_temperature;BMP_pressure;BME280_temperature;BME280_humidity;BME280_pressure;Samples;Min_cycle;Max_cycle;Signal;HPM_P1;HPM_P2
2022/06/10 00:00:20;;;;;;;7.53;2.20;;;17.60;1.00;;;;;;4994638;28;20210;-69
2022/06/10 00:02:46;;;;;;;10.30;2.23;;;17.60;1.00;;;;;;4994621;28;20179;-69
2022/06/10 00:05:19;;;;;;;5.70;2.17;;;17.40;1.00;;;;;;4994343;28;20733;-69
2022/06/10 00:07:45;;;;;;;7.53;2.57;;;17.40;1.00;;;;;;4994624;28;20536;-69
2022/06/10 00:10:13;;;;;;;10.50;2.30;;;17.40;1.00;;;;;;4992918;28;20288;-69
2022/06/10 00:12:39;;;;;;;8.47;2.30;;;17.40;1.00;;;;;;4994487;28;20183;-69
2022/06/10 00:15:06;;;;;;;5.77;2.47;;;17.30;1.00;;;;;;4994238;28;20581;-69
2022/06/10 00:17:31;;;;;;;5.93;2.20;;;17.40;1.00;;;;;;4994343;28;20179;-68
2022/06/10 00:19:57;;;;;;;5.40;2.13;;;17.30;1.00;;;;;;4993986;28;20179;-69
2022/06/10 00:22:23;;;;;;;10.07;2.60;;;17.30;1.00;;;;;;4994168;28;20538;-68
2022/06/10 00:24:51;;;;;;;6.20;2.13;;;17.30;1.00;;;;;;4993552;28;20223;-68
2022/06/10 00:27:17;;;;;;;6.97;2.30;;;17.40;1.00;;;;;;4992850;28;20581;-68
2022/06/10 00:29:43;;;;;;;10.43;2.53;;;17.40;1.00;;;;;;4993967;28;20182;-68
2022/06/10 00:32:08;;;;;;;6.53;2.57;;;17.40;1.00;;;;;;4994304;28;20171;-69
2022/06/10 00:34:35;;;;;;;9.40;2.33;;;17.40;1.00;;;;;;4993566;28;20210;-68
2022/06/10 00:37:06;;;;;;;9.60;2.70;;;17.30;1.00;;;;;;4994056;28;20669;-68
2022/06/10 00:39:34;;;;;;;8.83;2.50;;;17.30;1.00;;;;;;4993796;28;20202;-68
2022/06/10 00:42:00;;;;;;;10.07;2.60;;;17.40;1.00;;;;;;4993863;28;20242;-69
2022/06/10 00:44:39;;;;;;;11.27;2.60;;;17.40;1.00;;;;;;4993838;28;20175;-69
2022/06/10 00:47:15;;;;;;;5.67;2.57;;;17.40;1.00;;;;;;4993932;28;20179;-70
2022/06/10 00:49:45;;;;;;;10.37;2.47;;;17.50;1.00;;;;;;4993666;28;20167;-69
2022/06/10 00:52:24;;;;;;;9.93;2.63;;;17.50;1.00;;;;;;4993980;28;20167;-69
2022/06/10 00:54:52;;;;;;;9.63;2.70;;;17.40;1.00;;;;;;4993746;28;20296;-68
2022/06/10 00:57:23;;;;;;;9.33;2.57;;;17.40;1.00;;;;;;4994042;28;20211;-68
2022/06/10 01:00:11;;;;;;;10.87;2.50;;;17.40;1.00;;;;;;4993885;28;20175;-69
2022/06/10 01:02:38;;;;;;;13.47;2.83;;;17.40;1.00;;;;;;4993932;28;20214;-68
2022/06/10 01:05:25;;;;;;;12.90;2.80;;;17.40;1.00;;;;;;4993549;28;20167;-69
2022/06/10 01:07:58;;;;;;;8.33;2.50;;;17.40;1.00;;;;;;4993897;28;20198;-69
2022/06/10 01:10:24;;;;;;;13.30;2.90;;;17.50;1.00;;;;;;4992558;28;20294;-69
2022/06/10 01:13:11;;;;;;;8.53;2.60;;;17.50;1.00;;;;;;4993584;28;20207;-68
2022/06/10 01:16:07;;;;;;;11.57;2.97;;;17.60;1.00;;;;;;4993847;28;20199;-68
2022/06/10 01:18:56;;;;;;;8.40;2.40;;;17.50;1.00;;;;;;4993264;28;20179;-68
2022/06/10 01:21:51;;;;;;;7.00;2.63;;;17.40;1.00;;;;;;4993595;28;20182;-68
2022/06/10 01:24:25;;;;;;;10.57;2.83;;;17.50;1.00;;;;;;4993119;28;20221;-69
2022/06/10 01:30:20;;;;;;;9.40;2.50;;;17.50;1.00;;;;;;4993602;28;20221;-68
2022/06/10 01:32:51;;;;;;;8.20;2.30;;;17.50;1.00;;;;;;4993401;28;20183;-69
2022/06/10 01:35:32;;;;;;;9.50;2.23;;;17.40;1.00;;;;;;4993524;28;20211;-69
2022/06/10 01:38:24;;;;;;;10.23;2.80;;;17.40;1.00;;;;;;4993421;28;20171;-69
2022/06/10 01:40:57;;;;;;;8.03;2.40;;;17.50;1.00;;;;;;4993606;28;20210;-69
2022/06/10 01:43:39;;;;;;;9.53;2.67;;;17.60;1.00;;;;;;4993656;28;20171;-68
2022/06/10 01:46:30;;;;;;;7.43;2.80;;;17.50;1.00;;;;;;4993351;28;20182;-69
2022/06/10 01:49:26;;;;;;;8.27;2.33;;;17.50;1.00;;;;;;4993010;28;20171;-68
2022/06/10 01:52:13;;;;;;;4.87;2.93;;;17.50;1.00;;;;;;4974914;28;20239;-69
2022/06/10 01:55:03;;;;;;;8.20;2.80;;;17.40;1.00;;;;;;4959001;28;20219;-68
2022/06/10 01:57:44;;;;;;;7.57;3.10;;;17.30;1.00;;;;;;4917824;29;20201;-68
2022/06/10 02:00:17;;;;;;;7.20;3.00;;;17.40;1.00;;;;;;4917853;29;20190;-70
2022/06/10 02:03:15;;;;;;;8.47;2.93;;;17.40;1.00;;;;;;4917254;29;20186;-69
2022/06/10 02:05:56;;;;;;;7.90;3.17;;;17.40;1.00;;;;;;4917444;29;20194;-68
2022/06/10 02:08:45;;;;;;;7.10;3.10;;;17.40;1.00;;;;;;4917591;29;20182;-69
2022/06/10 02:11:17;;;;;;;9.70;3.57;;;17.40;1.00;;;;;;4910662;29;20217;-69
2022/06/10 02:13:45;;;;;;;8.67;3.30;;;17.40;1.00;;;;;;4917474;29;20213;-69
2022/06/10 02:16:15;;;;;;;5.93;3.57;;;17.50;1.00;;;;;;4917117;29;20290;-69
2022/06/10 02:19:27;;;;;;;9.77;3.57;;;17.50;1.00;;;;;;4917509;29;20300;-69
2022/06/10 02:22:17;;;;;;;7.23;3.37;;;17.50;1.00;;;;;;4913615;29;20281;-69
2022/06/10 02:24:45;;;;;;;10.47;3.87;;;17.50;1.00;;;;;;4917161;29;20281;-69
2022/06/10 02:27:20;;;;;;;7.60;4.27;;;17.40;1.00;;;;;;4917422;29;20186;-69
2022/06/10 02:30:05;;;;;;;14.67;5.27;;;17.40;1.00;;;;;;4934233;29;20225;-68
2022/06/10 02:32:32;;;;;;;9.60;5.03;;;17.40;1.00;;;;;;4935878;29;20200;-68
2022/06/10 02:34:59;;;;;;;13.60;5.27;;;17.30;1.00;;;;;;4977806;28;20267;-69
2022/06/10 02:37:42;;;;;;;12.97;5.07;;;17.30;1.00;;;;;;4996030;28;20643;-68
2022/06/10 02:40:25;;;;;;;10.77;5.63;;;17.30;1.00;;;;;;4995873;28;20190;-69
2022/06/10 02:42:58;;;;;;;9.60;4.87;;;17.30;1.00;;;;;;4994798;28;20178;-69
2022/06/10 02:45:26;;;;;;;8.47;4.90;;;17.30;1.00;;;;;;4995695;28;20164;-69
2022/06/10 02:48:16;;;;;;;8.67;4.93;;;17.30;1.00;;;;;;4995904;28;20171;-69
2022/06/10 02:50:44;;;;;;;12.03;5.57;;;17.30;1.00;;;;;;4995761;28;20175;-69
2022/06/10 02:53:11;;;;;;;10.17;4.67;;;17.20;1.00;;;;;;4994359;28;20175;-69
2022/06/10 02:55:38;;;;;;;10.73;6.03;;;17.20;1.00;;;;;;4995747;28;20214;-69
2022/06/10 03:01:13;;;;;;;18.13;9.57;;;17.30;1.00;;;;;;4995745;28;20226;-68
2022/06/10 03:04:08;;;;;;;22.60;9.03;;;17.30;1.00;;;;;;4994906;28;20176;-69
2022/06/10 03:06:59;;;;;;;15.60;7.83;;;17.50;1.00;;;;;;4995416;28;20230;-68
2022/06/10 03:09:31;;;;;;;13.07;6.70;;;17.50;1.00;;;;;;4995276;28;20229;-68
2022/06/10 03:12:09;;;;;;;12.03;6.30;;;17.40;1.00;;;;;;4995606;28;20182;-69
2022/06/10 03:15:00;;;;;;;14.77;5.63;;;17.40;1.00;;;;;;4994987;28;20207;-68
2022/06/10 03:17:29;;;;;;;11.73;5.50;;;17.50;1.00;;;;;;4991275;28;20190;-68
2022/06/10 03:19:54;;;;;;;12.77;4.33;;;17.50;1.00;;;;;;4995150;28;20167;-70
2022/06/10 03:22:54;;;;;;;8.60;3.80;;;17.50;1.00;;;;;;4993773;28;20187;-69
2022/06/10 03:25:47;;;;;;;11.10;3.97;;;17.50;1.00;;;;;;4994820;28;20238;-70
2022/06/10 03:28:12;;;;;;;7.87;3.07;;;17.50;1.00;;;;;;4994957;28;20175;-69
2022/06/10 03:30:49;;;;;;;6.23;3.17;;;17.50;1.00;;;;;;4994702;28;20197;-69
2022/06/10 03:33:29;;;;;;;6.80;2.80;;;17.60;1.00;;;;;;4995151;28;20254;-69
2022/06/10 03:36:21;;;;;;;4.17;2.10;;;17.60;1.00;;;;;;4994737;28;20187;-69
2022/06/10 03:38:49;;;;;;;9.30;2.50;;;17.60;1.00;;;;;;4995010;28;20178;-69
2022/06/10 03:41:26;;;;;;;7.07;2.20;;;17.70;1.00;;;;;;4994655;28;20182;-70
2022/06/10 03:43:53;;;;;;;4.90;1.90;;;17.70;1.00;;;;;;4994531;28;20218;-69
2022/06/10 03:46:22;;;;;;;8.00;2.33;;;17.70;1.00;;;;;;4994565;28;20200;-68
2022/06/10 03:48:50;;;;;;;6.20;2.27;;;17.70;1.00;;;;;;4994353;28;20634;-70
2022/06/10 03:51:17;;;;;;;8.47;2.10;;;17.60;1.00;;;;;;4994616;28;20261;-71
2022/06/10 03:53:43;;;;;;;6.00;1.87;;;17.70;1.00;;;;;;4994190;28;20222;-69
2022/06/10 03:56:10;;;;;;;7.70;1.90;;;17.70;1.00;;;;;;4994225;28;20182;-69
2022/06/10 03:58:36;;;;;;;6.50;2.00;;;17.80;1.00;;;;;;4994051;28;20635;-69
2022/06/10 04:01:02;;;;;;;7.10;2.10;;;17.80;1.00;;;;;;4994747;28;20273;-68
2022/06/10 04:03:28;;;;;;;5.03;2.00;;;18.00;1.00;;;;;;4993927;28;20592;-69
2022/06/10 04:05:55;;;;;;;5.70;2.37;;;17.90;1.00;;;;;;4994497;28;20599;-69
2022/06/10 04:08:21;;;;;;;8.07;2.10;;;17.90;1.00;;;;;;4994041;28;20635;-69
2022/06/10 04:10:47;;;;;;;8.93;2.37;;;18.00;1.00;;;;;;4993359;28;20673;-70
2022/06/10 04:13:17;;;;;;;7.57;2.20;;;17.90;1.00;;;;;;4993311;28;20250;-69
2022/06/10 04:15:44;;;;;;;5.37;1.77;;;18.00;1.00;;;;;;4994362;28;20211;-70
2022/06/10 04:18:09;;;;;;;6.70;2.07;;;17.90;1.00;;;;;;4993925;28;20167;-70
2022/06/10 04:20:37;;;;;;;6.67;1.90;;;17.70;1.00;;;;;;4994254;28;20742;-70
2022/06/10 04:23:04;;;;;;;4.57;1.80;;;17.70;1.00;;;;;;4993837;28;20175;-70
2022/06/10 04:25:30;;;;;;;8.33;2.13;;;17.70;1.00;;;;;;4993489;28;20235;-70
2022/06/10 04:27:56;;;;;;;6.30;1.80;;;17.70;1.00;;;;;;4993561;28;20230;-68
2022/06/10 04:30:29;;;;;;;5.70;1.87;;;17.70;1.00;;;;;;4993866;28;20631;-68
2022/06/10 04:32:55;;;;;;;9.37;2.20;;;17.70;1.00;;;;;;4993501;28;20202;-68
2022/06/10 04:35:23;;;;;;;8.17;2.10;;;17.70;1.00;;;;;;4993534;28;20222;-69
2022/06/10 04:37:49;;;;;;;6.40;2.00;;;17.70;1.00;;;;;;4993877;28;20211;-69
2022/06/10 04:40:17;;;;;;;6.53;2.10;;;17.70;1.00;;;;;;4993458;28;20208;-70
2022/06/10 04:42:44;;;;;;;11.50;2.30;;;17.70;1.00;;;;;;4992969;28;20171;-69
2022/06/10 04:45:11;;;;;;;6.47;1.97;;;17.80;1.00;;;;;;4993131;28;20175;-69
2022/06/10 04:47:36;;;;;;;11.53;2.30;;;17.80;1.00;;;;;;4993749;28;20195;-70
2022/06/10 04:50:04;;;;;;;5.60;1.97;;;17.80;1.00;;;;;;4993304;28;20261;-69
2022/06/10 04:52:30;;;;;;;5.50;2.07;;;17.80;1.00;;;;;;4992986;28;20185;-69
2022/06/10 04:54:56;;;;;;;7.70;2.40;;;17.90;1.00;;;;;;4992901;28;20226;-69
2022/06/10 04:57:21;;;;;;;4.90;2.10;;;17.90;1.00;;;;;;4992960;28;20175;-69
2022/06/10 04:59:48;;;;;;;4.17;1.80;;;17.90;1.00;;;;;;4992617;28;20310;-69
2022/06/10 05:02:14;;;;;;;4.43;1.90;;;18.00;1.00;;;;;;4993534;28;20171;-69
2022/06/10 05:04:39;;;;;;;4.43;2.23;;;17.90;1.00;;;;;;4993194;28;20655;-69
2022/06/10 05:07:05;;;;;;;5.93;1.97;;;17.90;1.00;;;;;;4992865;28;20171;-69
2022/06/10 05:09:31;;;;;;;5.57;1.87;;;17.90;1.00;;;;;;4992997;28;20194;-69
2022/06/10 05:11:56;;;;;;;5.80;1.83;;;18.00;1.00;;;;;;4992658;28;20662;-69
2022/06/10 05:14:22;;;;;;;7.30;2.03;;;18.10;1.00;;;;;;4992552;28;20337;-69
2022/06/10 05:16:47;;;;;;;5.90;2.10;;;18.00;1.00;;;;;;4993244;28;20528;-69
2022/06/10 05:19:13;;;;;;;6.63;2.00;;;18.10;1.00;;;;;;4993218;28;20179;-69
2022/06/10 05:21:39;;;;;;;4.63;1.90;;;18.10;1.00;;;;;;4992708;28;20175;-69
2022/06/10 05:24:05;;;;;;;7.10;2.00;;;18.10;1.00;;;;;;4992431;28;20260;-68
2022/06/10 05:26:32;;;;;;;8.83;2.17;;;18.10;1.00;;;;;;4994973;28;20595;-69
2022/06/10 05:29:01;;;;;;;5.17;1.80;;;18.10;1.00;;;;;;4995950;28;20180;-69
2022/06/10 05:31:27;;;;;;;7.40;2.40;;;18.20;1.00;;;;;;4996142;28;20335;-69
2022/06/10 05:36:37;;;;;;;4.67;1.83;;;18.30;1.00;;;;;;4996276;28;20318;-70
2022/06/10 05:39:04;;;;;;;6.83;1.83;;;18.30;1.00;;;;;;4995748;28;20199;-69
2022/06/10 05:44:14;;;;;;;8.77;2.03;;;18.30;1.00;;;;;;4996520;28;20317;-69
2022/06/10 05:46:40;;;;;;;6.67;2.10;;;18.20;1.00;;;;;;4995633;28;20273;-70
2022/06/10 05:49:06;;;;;;;6.73;2.13;;;18.30;1.00;;;;;;4995904;28;20176;-70
2022/06/10 05:51:32;;;;;;;7.83;2.10;;;18.30;1.00;;;;;;4995648;28;20182;-70
2022/06/10 05:53:57;;;;;;;9.03;2.40;;;18.40;1.00;;;;;;4995199;28;20333;-70
2022/06/10 05:56:23;;;;;;;7.60;2.57;;;18.40;1.00;;;;;;4995389;28;20335;-69
2022/06/10 05:58:48;;;;;;;10.00;2.47;;;18.40;1.00;;;;;;4994915;28;20498;-70
2022/06/10 06:01:14;;;;;;;12.10;3.07;;;18.30;1.00;;;;;;4995163;28;20603;-70
2022/06/10 06:03:40;;;;;;;12.10;2.37;;;18.50;1.00;;;;;;4995942;28;20179;-70
2022/06/10 06:06:05;;;;;;;9.20;2.60;;;18.50;1.00;;;;;;4995296;28;20182;-70
2022/06/10 06:08:31;;;;;;;8.17;2.30;;;18.60;1.00;;;;;;4994788;28;20647;-70
2022/06/10 06:10:56;;;;;;;7.37;2.80;;;18.60;1.00;;;;;;4995547;28;20203;-69
2022/06/10 06:13:22;;;;;;;14.50;2.90;;;18.70;1.00;;;;;;4994898;28;20183;-69
2022/06/10 06:15:48;;;;;;;6.23;2.10;;;18.90;1.00;;;;;;4995313;28;20607;-69
2022/06/10 06:18:13;;;;;;;7.60;2.10;;;19.10;1.00;;;;;;4995162;28;20189;-70
2022/06/10 06:20:39;;;;;;;10.32;2.72;;;19.20;1.00;;;;;;4995400;28;20640;-70
2022/06/10 06:23:05;;;;;;;9.52;2.33;;;19.30;99.90;;;;;;4994657;28;20171;-70
2022/06/10 06:25:32;;;;;;;11.88;2.70;;;19.30;1.00;;;;;;4994414;28;20231;-69
2022/06/10 06:27:58;;;;;;;7.97;2.35;;;19.20;1.00;;;;;;4994910;28;20178;-69
2022/06/10 06:30:31;;;;;;;9.15;2.25;;;19.20;1.00;;;;;;4995031;28;20175;-70
2022/06/10 06:33:03;;;;;;;7.05;2.28;;;19.20;1.00;;;;;;4994791;28;20163;-70
2022/06/10 06:35:30;;;;;;;7.82;2.70;;;19.30;1.00;;;;;;4994322;28;20207;-69
2022/06/10 06:37:55;;;;;;;7.10;2.28;;;19.30;1.00;;;;;;4994479;28;20180;-69
2022/06/10 06:40:21;;;;;;;6.43;2.30;;;19.60;1.00;;;;;;4993918;28;20255;-69
2022/06/10 06:42:48;;;;;;;4.70;2.15;;;19.60;99.90;;;;;;4994734;28;20630;-70
2022/06/10 06:45:15;;;;;;;5.72;2.45;;;19.50;1.00;;;;;;4994412;28;20178;-70
2022/06/10 06:47:41;;;;;;;7.07;2.20;;;19.30;1.00;;;;;;4995608;28;20606;-69
2022/06/10 06:50:09;;;;;;;8.10;2.50;;;19.30;1.00;;;;;;4995726;28;20194;-70
2022/06/10 06:52:35;;;;;;;14.82;3.00;;;19.30;1.00;;;;;;4994768;28;20180;-69
2022/06/10 06:55:01;;;;;;;9.23;2.95;;;19.40;1.00;;;;;;4994215;28;20215;-70
2022/06/10 06:57:27;;;;;;;9.25;2.58;;;19.50;1.00;;;;;;4994977;28;20179;-70
2022/06/10 06:59:53;;;;;;;7.35;2.90;;;19.60;1.00;;;;;;4993971;28;20171;-69
2022/06/10 07:02:20;;;;;;;8.57;3.53;;;19.60;1.00;;;;;;4994370;28;20168;-71
2022/06/10 07:04:46;;;;;;;7.63;2.90;;;19.50;1.00;;;;;;4994027;28;20607;-70
2022/06/10 07:07:12;;;;;;;8.73;2.78;;;19.50;1.00;;;;;;4994598;28;20176;-69
2022/06/10 07:09:37;;;;;;;8.65;3.40;;;19.50;1.00;;;;;;4994434;28;20197;-69
2022/06/10 07:12:04;;;;;;;6.32;2.95;;;19.50;1.00;;;;;;4994313;28;20580;-69
2022/06/10 07:14:29;;;;;;;8.18;3.50;;;19.50;1.00;;;;;;4994274;28;20569;-69
2022/06/10 07:16:55;;;;;;;8.43;2.90;;;19.60;1.00;;;;;;4994732;28;20167;-69
2022/06/10 07:19:21;;;;;;;8.27;3.03;;;19.70;1.00;;;;;;4994300;28;20725;-69
2022/06/10 07:21:47;;;;;;;8.77;3.20;;;19.50;1.00;;;;;;4992694;28;20210;-69
2022/06/10 07:24:13;;;;;;;7.30;3.03;;;19.70;1.00;;;;;;4993524;28;20219;-70
2022/06/10 07:26:39;;;;;;;8.55;3.08;;;19.80;1.00;;;;;;4994238;28;20168;-70
2022/06/10 07:29:05;;;;;;;10.25;3.72;;;20.00;1.00;;;;;;4993764;28;20271;-69
2022/06/10 07:31:31;;;;;;;10.40;3.70;;;20.30;1.00;;;;;;4992843;28;20266;-71
2022/06/10 07:33:58;;;;;;;8.88;3.22;;;21.40;19.10;;;;;;4993378;28;20191;-70
2022/06/10 07:36:23;;;;;;;7.15;3.13;;;21.80;1.00;;;;;;4993334;28;20178;-68
2022/06/10 07:38:49;;;;;;;8.68;2.83;;;21.80;99.90;;;;;;4984478;28;20175;-71
2022/06/10 07:43:59;;;;;;;7.25;3.15;;;22.10;1.00;;;;;;4993257;28;20542;-70
2022/06/10 07:46:24;;;;;;;7.95;3.10;;;21.80;1.00;;;;;;4993696;28;20163;-70
2022/06/10 07:48:50;;;;;;;10.45;3.33;;;21.60;99.90;;;;;;4993121;28;20175;-70
2022/06/10 07:51:17;;;;;;;12.75;3.60;;;21.20;1.00;;;;;;4993061;28;20183;-70
2022/06/10 07:53:43;;;;;;;6.95;3.60;;;21.30;1.00;;;;;;4993814;28;20231;-70
2022/06/10 07:56:10;;;;;;;6.95;3.08;;;21.40;85.40;;;;;;4993574;28;20229;-71
2022/06/10 07:58:36;;;;;;;7.13;3.10;;;21.10;92.00;;;;;;4992374;28;20199;-69
2022/06/10 08:01:02;;;;;;;11.10;3.28;;;20.80;99.90;;;;;;4991093;28;20643;-69
2022/06/10 08:03:28;;;;;;;10.57;3.60;;;20.80;1.00;;;;;;4991011;28;20198;-70
2022/06/10 08:05:54;;;;;;;10.85;3.40;;;20.70;1.00;;;;;;4991925;28;20186;-70
2022/06/10 08:08:21;;;;;;;12.43;3.53;;;20.80;1.00;;;;;;4992392;28;20175;-70
2022/06/10 08:10:47;;;;;;;9.15;3.47;;;21.20;99.90;;;;;;4993460;28;20206;-68
2022/06/10 08:13:14;;;;;;;8.13;3.20;;;21.30;99.90;;;;;;4991763;28;20258;-69
2022/06/10 08:15:41;;;;;;;10.13;3.47;;;21.30;99.90;;;;;;4992839;28;20211;-68
2022/06/10 08:18:07;;;;;;;7.22;3.30;;;21.50;99.90;;;;;;4992450;28;20171;-70
2022/06/10 08:23:21;;;;;;;8.02;3.22;;;21.90;1.00;;;;;;4992678;28;20206;-70
2022/06/10 08:25:48;;;;;;;10.57;3.80;;;23.60;99.90;;;;;;4993148;28;20230;-70
2022/06/10 08:28:14;;;;;;;11.25;4.43;;;24.50;99.90;;;;;;4992362;28;20270;-71
2022/06/10 08:30:39;;;;;;;8.35;3.60;;;24.60;1.00;;;;;;4992194;28;20254;-71
2022/06/10 08:33:05;;;;;;;9.07;3.45;;;24.20;1.00;;;;;;4992959;28;20179;-70
2022/06/10 08:35:32;;;;;;;9.07;3.65;;;24.50;99.90;;;;;;4991127;28;20249;-70
2022/06/10 08:37:59;;;;;;;9.07;3.85;;;25.00;26.30;;;;;;4990509;28;20254;-72
2022/06/10 08:40:45;;;;;;;6.80;3.10;;;26.60;1.00;;;;;;4992775;28;20186;-71
2022/06/10 08:43:35;;;;;;;8.85;3.33;;;28.10;1.00;;;;;;4992054;28;20254;-74
2022/06/10 08:46:24;;;;;;;11.27;3.20;;;30.50;99.90;;;;;;4992446;28;20254;-72
2022/06/10 08:49:27;;;;;;;6.50;3.38;;;30.80;99.90;;;;;;4991942;28;20619;-71
2022/06/10 08:52:13;;;;;;;6.43;3.60;;;30.90;99.90;;;;;;4991067;28;20650;-70
2022/06/10 08:55:00;;;;;;;7.18;3.35;;;31.10;99.90;;;;;;4991060;28;20219;-70
2022/06/10 08:57:42;;;;;;;8.02;3.35;;;30.40;99.90;;;;;;4990797;28;20266;-72
2022/06/10 09:00:10;;;;;;;7.28;3.00;;;30.40;99.90;;;;;;4992485;28;20194;-71
2022/06/10 09:02:44;;;;;;;7.20;3.63;;;30.20;99.90;;;;;;4996280;28;20172;-71
2022/06/10 09:05:19;;;;;;;9.60;3.72;;;30.40;99.90;;;;;;4995986;28;20201;-74
2022/06/10 09:07:50;;;;;;;7.05;3.50;;;31.00;99.90;;;;;;4995667;28;20194;-73
2022/06/10 09:10:23;;;;;;;8.30;3.42;;;31.00;99.90;;;;;;4995833;28;20199;-73
2022/06/10 09:13:19;;;;;;;5.30;3.25;;;30.50;99.90;;;;;;4996267;28;20179;-72
2022/06/10 09:16:10;;;;;;;7.82;4.10;;;30.60;99.90;;;;;;4989678;28;20211;-72
2022/06/10 09:18:38;;;;;;;9.35;3.45;;;30.70;99.90;;;;;;4996221;28;20179;-72
2022/06/10 09:21:22;;;;;;;7.53;3.25;;;32.20;99.90;;;;;;4996650;28;20179;-72
2022/06/10 09:23:48;;;;;;;6.82;3.60;;;32.90;99.90;;;;;;4992023;28;20642;-73
2022/06/10 09:26:39;;;;;;;10.10;4.00;;;33.30;99.90;;;;;;4992193;28;20221;-71
2022/06/10 09:29:05;;;;;;;7.88;4.13;;;33.20;99.90;;;;;;4996309;28;20251;-71
2022/06/10 09:31:49;;;;;;;8.35;3.50;;;32.70;99.90;;;;;;4995963;28;20182;-71
2022/06/10 09:35:02;;;;;;;8.10;3.92;;;32.70;99.90;;;;;;4995799;28;20249;-71
2022/06/10 09:38:03;;;;;;;9.60;4.13;;;32.30;99.90;;;;;;4973765;28;20202;-71
2022/06/10 09:40:44;;;;;;;11.38;4.20;;;31.10;99.90;;;;;;4957245;28;20183;-74
2022/06/10 09:43:30;;;;;;;9.30;3.85;;;32.10;99.90;;;;;;4972084;28;20215;-72
2022/06/10 09:46:41;;;;;;;7.07;3.65;;;31.90;99.90;;;;;;4973753;28;20194;-73
2022/06/10 09:49:34;;;;;;;7.38;3.88;;;32.10;99.90;;;;;;4895187;29;20667;-73
2022/06/10 09:52:44;;;;;;;6.07;3.53;;;31.40;99.90;;;;;;4897217;29;20627;-73
2022/06/10 09:55:28;;;;;;;8.98;3.85;;;31.50;99.90;;;;;;4841773;29;20227;-72
2022/06/10 09:57:59;;;;;;;9.27;4.80;;;30.60;99.90;;;;;;4841872;29;20218;-71
2022/06/10 10:01:12;;;;;;;9.60;5.00;;;29.30;99.90;;;;;;4840958;29;20184;-71
2022/06/10 10:03:53;;;;;;;10.43;4.50;;;28.70;99.90;;;;;;4823624;29;20596;-73
2022/06/10 10:06:40;;;;;;;13.52;4.70;;;30.20;99.90;;;;;;4823434;29;20212;-74
2022/06/10 10:09:34;;;;;;;9.82;4.40;;;30.10;99.90;;;;;;4839147;29;20256;-72
2022/06/10 10:12:09;;;;;;;10.25;4.40;;;30.00;99.90;;;;;;4839825;29;20221;-72
2022/06/10 10:15:06;;;;;;;6.53;5.10;;;30.40;99.90;;;;;;4840874;29;20235;-72
2022/06/10 10:18:03;;;;;;;11.25;5.43;;;30.80;99.90;;;;;;4823444;29;20185;-72
2022/06/10 10:20:56;;;;;;;8.43;5.70;;;31.00;99.90;;;;;;4823224;29;20618;-72
2022/06/10 10:23:37;;;;;;;11.40;6.03;;;31.00;99.90;;;;;;4822031;29;20292;-74
2022/06/10 10:26:06;;;;;;;13.23;6.18;;;29.80;99.90;;;;;;4853300;29;20688;-74
2022/06/10 10:28:37;;;;;;;12.52;6.70;;;30.50;99.90;;;;;;4877253;29;20236;-73
2022/06/10 10:31:10;;;;;;;12.70;5.70;;;29.90;99.90;;;;;;4915179;29;20178;-73
2022/06/10 10:33:36;;;;;;;12.35;6.20;;;29.90;99.90;;;;;;4914740;29;20259;-73
2022/06/10 10:36:10;;;;;;;9.82;6.10;;;30.20;99.90;;;;;;4915682;29;20311;-74
2022/06/10 10:38:42;;;;;;;11.35;6.07;;;30.80;99.90;;;;;;4921631;29;20272;-72
2022/06/10 10:41:42;;;;;;;9.57;5.93;;;30.60;99.90;;;;;;4934818;29;20194;-73
2022/06/10 10:44:24;;;;;;;10.15;5.97;;;30.50;99.90;;;;;;4933587;29;20404;-72
2022/06/10 10:47:12;;;;;;;11.48;6.07;;;30.50;99.90;;;;;;4954046;29;20227;-74
2022/06/10 10:49:48;;;;;;;12.25;5.35;;;29.60;99.90;;;;;;4953370;29;20179;-73
2022/06/10 10:52:23;;;;;;;10.45;5.53;;;28.90;99.90;;;;;;4953256;29;20596;-74
2022/06/10 10:54:53;;;;;;;13.07;5.45;;;28.90;99.90;;;;;;4978358;28;20225;-74
2022/06/10 10:57:30;;;;;;;7.68;4.30;;;28.80;99.90;;;;;;4994132;28;20254;-73
2022/06/10 11:00:14;;;;;;;5.70;4.05;;;28.50;99.90;;;;;;4994205;28;20229;-74
2022/06/10 11:02:41;;;;;;;8.20;4.65;;;28.80;99.90;;;;;;4993957;28;20175;-72
2022/06/10 11:05:31;;;;;;;8.32;4.50;;;29.20;99.90;;;;;;4994034;28;20168;-76
2022/06/10 11:08:19;;;;;;;11.07;4.43;;;29.50;99.90;;;;;;4993809;28;20555;-73
2022/06/10 11:11:03;;;;;;;10.45;4.70;;;29.40;99.90;;;;;;4994052;28;20194;-74
2022/06/10 11:13:46;;;;;;;7.75;3.85;;;29.50;99.90;;;;;;4993943;28;20226;-73
2022/06/10 11:16:23;;;;;;;7.68;3.92;;;29.20;99.90;;;;;;4993257;28;20321;-74
2022/06/10 11:18:52;;;;;;;5.68;3.95;;;29.70;99.90;;;;;;4994327;28;20214;-74
2022/06/10 11:21:20;;;;;;;10.45;4.45;;;29.50;99.90;;;;;;4993744;28;20171;-74
2022/06/10 11:23:54;;;;;;;7.53;3.53;;;29.50;99.90;;;;;;4992357;28;20639;-73
2022/06/10 11:26:22;;;;;;;4.35;3.38;;;29.30;99.90;;;;;;4991166;28;20190;-74
2022/06/10 11:28:57;;;;;;;5.18;3.05;;;29.10;99.90;;;;;;4994259;28;20524;-74
2022/06/10 11:31:40;;;;;;;8.32;3.28;;;29.40;99.90;;;;;;4994206;28;20178;-72
2022/06/10 11:34:21;;;;;;;8.75;3.58;;;29.10;99.90;;;;;;4993890;28;20306;-72
2022/06/10 11:36:52;;;;;;;8.48;3.40;;;28.50;99.90;;;;;;4993978;28;20179;-72
2022/06/10 11:39:27;;;;;;;8.98;3.28;;;27.70;99.90;;;;;;4992805;28;20554;-73
2022/06/10 11:42:09;;;;;;;7.75;3.42;;;27.40;99.90;;;;;;4993331;28;20638;-72
2022/06/10 11:45:03;;;;;;;6.50;2.95;;;27.10;1.00;;;;;;4994111;28;20176;-70
2022/06/10 11:47:41;;;;;;;7.35;3.60;;;26.60;1.00;;;;;;4972506;28;20180;-72
2022/06/10 11:50:22;;;;;;;8.38;3.30;;;26.20;1.00;;;;;;4971019;28;20196;-73
2022/06/10 11:53:01;;;;;;;6.50;3.10;;;26.00;99.90;;;;;;4970742;28;20242;-73
2022/06/10 11:55:38;;;;;;;7.03;3.20;;;26.30;25.30;;;;;;4972170;28;20750;-74
2022/06/10 12:01:22;;;;;;;7.05;3.10;;;27.00;1.00;;;;;;4971838;28;20278;-74
2022/06/10 12:03:55;;;;;;;8.23;2.92;;;26.90;1.00;;;;;;4956098;28;20194;-74
2022/06/10 12:06:33;;;;;;;5.57;2.90;;;26.60;1.00;;;;;;4972512;28;20180;-73
2022/06/10 12:09:15;;;;;;;5.35;3.10;;;26.40;1.00;;;;;;4955473;28;20722;-73
2022/06/10 12:11:50;;;;;;;6.55;3.08;;;25.90;1.00;;;;;;4954142;28;20200;-70
2022/06/10 12:14:28;;;;;;;8.25;3.03;;;25.70;25.80;;;;;;4972294;28;20212;-74
2022/06/10 12:17:05;;;;;;;7.82;3.20;;;26.10;4.80;;;;;;4971536;28;20227;-71
2022/06/10 12:19:46;;;;;;;6.15;3.17;;;26.30;1.00;;;;;;4970316;28;20182;-72
2022/06/10 12:22:13;;;;;;;6.60;3.05;;;26.10;1.00;;;;;;4970946;28;20180;-73
2022/06/10 12:24:40;;;;;;;5.78;2.88;;;26.30;1.00;;;;;;4982204;28;20230;-73
2022/06/10 12:27:15;;;;;;;7.68;2.92;;;26.80;1.00;;;;;;4992312;28;20219;-72
2022/06/10 12:30:02;;;;;;;8.95;2.50;;;26.80;1.00;;;;;;4973952;28;20661;-72
2022/06/10 12:32:49;;;;;;;5.95;2.90;;;26.60;1.00;;;;;;4990405;28;20206;-73
2022/06/10 12:35:23;;;;;;;10.18;3.47;;;26.30;1.00;;;;;;4990445;28;20214;-73
2022/06/10 12:38:01;;;;;;;6.03;2.42;;;26.60;1.00;;;;;;4992713;28;20377;-71
2022/06/10 12:40:38;;;;;;;7.63;2.67;;;26.70;1.00;;;;;;4992989;28;20179;-74
2022/06/10 12:43:12;;;;;;;6.40;2.50;;;27.20;1.00;;;;;;4992100;28;20194;-72
2022/06/10 12:45:47;;;;;;;10.13;6.82;;;27.00;1.00;;;;;;4991906;28;20181;-73
2022/06/10 12:48:42;;;;;;;4.78;2.38;;;26.80;1.00;;;;;;4992712;28;20174;-73
2022/06/10 12:51:11;;;;;;;10.18;3.10;;;26.50;1.00;;;;;;4991390;28;20369;-73
2022/06/10 12:54:15;;;;;;;7.60;2.78;;;26.30;1.00;;;;;;4991452;28;20188;-73
2022/06/10 12:56:40;;;;;;;7.07;2.70;;;26.10;1.00;;;;;;4950918;29;20192;-72
2022/06/10 12:59:06;;;;;;;4.82;2.30;;;25.70;1.00;;;;;;4951120;28;20720;-72
2022/06/10 13:01:32;;;;;;;8.13;2.38;;;25.40;28.40;;;;;;4951610;29;20185;-71
2022/06/10 13:04:10;;;;;;;9.32;2.35;;;25.30;99.90;;;;;;4950483;29;20219;-71
2022/06/10 13:06:41;;;;;;;6.47;2.88;;;25.60;1.00;;;;;;4951883;29;20176;-73
2022/06/10 13:09:10;;;;;;;7.25;2.47;;;25.70;1.00;;;;;;4951182;29;20199;-73
2022/06/10 13:11:55;;;;;;;6.18;2.33;;;25.80;1.00;;;;;;4949908;29;20645;-74
2022/06/10 13:14:47;;;;;;;4.28;2.08;;;26.10;1.00;;;;;;4952530;29;20235;-73
2022/06/10 13:17:27;;;;;;;4.00;1.98;;;26.10;1.00;;;;;;4950053;29;20272;-73
2022/06/10 13:19:58;;;;;;;8.90;2.25;;;26.00;1.00;;;;;;4950463;29;20263;-73
2022/06/10 13:22:34;;;;;;;7.07;2.42;;;25.90;1.00;;;;;;4951679;29;20181;-74
2022/06/10 13:25:00;;;;;;;6.95;2.70;;;26.00;1.00;;;;;;4949553;29;20223;-74
2022/06/10 13:27:27;;;;;;;7.85;2.70;;;26.20;1.00;;;;;;4951915;29;20177;-74
2022/06/10 13:30:00;;;;;;;6.40;2.25;;;26.40;1.00;;;;;;4959379;28;20287;-75
2022/06/10 13:32:27;;;;;;;4.50;2.10;;;26.40;1.00;;;;;;4991412;28;20230;-74
2022/06/10 13:34:55;;;;;;;4.80;2.42;;;26.40;1.00;;;;;;4992848;28;20222;-74
2022/06/10 13:37:24;;;;;;;5.50;2.22;;;26.70;1.00;;;;;;4992447;28;20668;-73
2022/06/10 13:39:52;;;;;;;7.82;2.42;;;26.60;1.00;;;;;;4992011;28;20520;-73
2022/06/10 13:42:25;;;;;;;4.30;2.17;;;26.70;1.00;;;;;;4992020;28;20175;-74
2022/06/10 13:44:51;;;;;;;5.28;2.38;;;26.60;1.00;;;;;;4991456;28;20303;-74
2022/06/10 13:47:32;;;;;;;7.10;2.50;;;26.40;1.00;;;;;;4994874;28;20180;-74